createdAt,value
2022-10-01T00:00:08.682Z,7.3
2022-10-01T00:01:09.230Z,7.3
2022-10-01T00:02:08.678Z,7.3
2022-10-01T00:03:08.758Z,7.3
2022-10-01T00:04:08.665Z,7.3
2022-10-01T00:05:08.676Z,7.3
2022-10-01T00:06:09.377Z,7.3
2022-10-01T00:07:07.728Z,7.3
2022-10-01T00:08:08.924Z,7.3
2022-10-01T00:09:08.685Z,7.3
2022-10-01T00:10:09.144Z,7.4
2022-10-01T00:11:08.668Z,7.3
2022-10-01T00:12:09.244Z,7.3
2022-10-01T00:13:08.701Z,7.4
2022-10-01T00:14:08.987Z,7.4
2022-10-01T00:15:10.695Z,7.3
2022-10-01T00:16:08.865Z,7.3
2022-10-01T00:17:08.675Z,7.2
2022-10-01T00:18:08.893Z,7.2
2022-10-01T00:19:08.671Z,7.2
2022-10-01T00:20:14.157Z,7.2
2022-10-01T00:21:08.678Z,7.2
2022-10-01T00:22:08.680Z,7.2
2022-10-01T00:23:08.677Z,7.2
2022-10-01T00:24:08.855Z,7.1
2022-10-01T00:25:08.670Z,7.1
2022-10-01T00:26:08.665Z,7.1
2022-10-01T00:27:09.133Z,7.1
2022-10-01T00:28:08.122Z,7.2
2022-10-01T00:29:09.438Z,7.2
2022-10-01T00:30:07.754Z,7.1
2022-10-01T00:31:08.731Z,7.1
2022-10-01T00:32:08.718Z,7.1
2022-10-01T00:33:08.684Z,7.1
2022-10-01T00:34:08.676Z,7.1
2022-10-01T00:35:08.829Z,7.1
2022-10-01T00:36:08.836Z,7.2
2022-10-01T00:37:07.823Z,7.2
2022-10-01T00:38:08.992Z,7.1
2022-10-01T00:39:09.261Z,7.1
2022-10-01T00:40:07.768Z,7.1
2022-10-01T00:41:08.668Z,7.1
2022-10-01T00:42:08.679Z,7.1
2022-10-01T00:43:08.685Z,7.1
2022-10-01T00:44:08.696Z,7.1
2022-10-01T00:45:08.675Z,7.1
2022-10-01T00:46:08.793Z,7
2022-10-01T00:47:09.003Z,7
2022-10-01T00:48:08.665Z,7
2022-10-01T00:49:09.036Z,7
2022-10-01T00:52:07.745Z,7
2022-10-01T00:53:08.663Z,6.9
2022-10-01T00:55:09.484Z,6.9
2022-10-01T00:56:08.689Z,6.8
2022-10-01T00:57:08.672Z,6.7
2022-10-01T00:58:08.781Z,6.7
2022-10-01T00:59:08.666Z,6.6
2022-10-01T01:00:08.685Z,6.4
2022-10-01T01:01:08.796Z,6.4
2022-10-01T01:02:09.512Z,6.3
2022-10-01T01:03:09.023Z,6.3
2022-10-01T01:04:09.240Z,6.2
2022-10-01T01:05:08.669Z,6.1
2022-10-01T01:06:07.744Z,6
2022-10-01T01:07:08.448Z,6
2022-10-01T01:08:09.040Z,5.9
2022-10-01T01:09:09.248Z,5.8
2022-10-01T01:10:08.680Z,5.8
2022-10-01T01:11:08.749Z,5.7
2022-10-01T01:12:08.676Z,5.7
2022-10-01T01:13:09.291Z,5.6
2022-10-01T01:14:07.751Z,5.6
2022-10-01T01:15:08.702Z,5.6
2022-10-01T01:16:09.277Z,5.5
2022-10-01T01:17:08.712Z,5.4
2022-10-01T01:18:08.823Z,5.3
2022-10-01T01:19:09.475Z,5.3
2022-10-01T01:20:09.513Z,5.2
2022-10-01T01:21:09.267Z,5.2
2022-10-01T01:22:08.683Z,5.2
2022-10-01T01:23:08.689Z,5.1
2022-10-01T01:24:09.427Z,5.1
2022-10-01T01:25:09.249Z,5
2022-10-01T01:26:08.693Z,5
2022-10-01T01:27:08.695Z,4.9
2022-10-01T01:28:08.707Z,4.9
2022-10-01T01:29:08.695Z,4.8
2022-10-01T01:30:08.681Z,4.8
2022-10-01T01:31:09.484Z,4.7
2022-10-01T01:32:13.989Z,4.7
2022-10-01T01:33:09.525Z,4.7
2022-10-01T01:34:08.695Z,4.7
2022-10-01T01:35:09.111Z,4.6
2022-10-01T01:36:08.735Z,4.6
2022-10-01T01:37:07.749Z,4.6
2022-10-01T01:38:08.689Z,4.6
2022-10-01T01:39:08.677Z,4.5
2022-10-01T01:40:08.682Z,4.5
2022-10-01T01:41:09.066Z,4.5
2022-10-01T01:42:08.684Z,4.5
2022-10-01T01:43:08.941Z,4.4
2022-10-01T01:44:09.118Z,4.4
2022-10-01T01:45:09.249Z,4.4
2022-10-01T01:46:09.073Z,4.4
2022-10-01T01:47:08.685Z,4.4
2022-10-01T01:48:08.680Z,4.3
2022-10-01T01:49:08.670Z,4.3
2022-10-01T01:50:08.677Z,4.3
2022-10-01T01:51:08.719Z,4.3
2022-10-01T01:52:08.688Z,4.2
2022-10-01T01:53:08.687Z,4.2
2022-10-01T01:54:08.687Z,4.2
2022-10-01T01:55:08.707Z,4.2
2022-10-01T01:56:08.690Z,4.2
2022-10-01T01:57:08.825Z,4.2
2022-10-01T01:58:09.024Z,4.1
2022-10-01T01:59:08.682Z,4.1
2022-10-01T02:01:09.180Z,4
2022-10-01T02:02:09.415Z,4
2022-10-01T02:03:08.682Z,4
2022-10-01T02:04:08.665Z,4.1
2022-10-01T02:05:08.673Z,4.1
2022-10-01T02:06:08.876Z,4.1
2022-10-01T02:07:07.989Z,4.1
2022-10-01T02:08:09.237Z,4.1
2022-10-01T02:10:07.755Z,4
2022-10-01T02:11:08.769Z,4
2022-10-01T02:12:08.674Z,4
2022-10-01T02:13:09.199Z,3.9
2022-10-01T02:14:09.311Z,3.9
2022-10-01T02:15:08.693Z,4
2022-10-01T02:16:09.111Z,3.9
2022-10-01T02:17:08.725Z,3.9
2022-10-01T02:18:08.698Z,3.9
2022-10-01T02:19:08.681Z,3.9
2022-10-01T02:20:08.673Z,3.9
2022-10-01T02:21:07.768Z,3.9
2022-10-01T02:22:09.109Z,3.9
2022-10-01T02:23:08.684Z,3.8
2022-10-01T02:24:08.688Z,3.9
2022-10-01T02:25:08.693Z,3.9
2022-10-01T02:26:08.706Z,3.9
2022-10-01T02:27:08.685Z,3.9
2022-10-01T02:28:08.760Z,3.9
2022-10-01T02:29:09.158Z,3.9
2022-10-01T02:30:08.690Z,3.8
2022-10-01T02:31:08.759Z,3.8
2022-10-01T02:32:07.819Z,3.8
2022-10-01T02:33:08.682Z,3.8
2022-10-01T02:34:12.337Z,3.8
2022-10-01T02:35:09.463Z,3.8
2022-10-01T02:36:09.198Z,3.8
2022-10-01T02:37:07.742Z,3.9
2022-10-01T02:38:09.292Z,3.8
2022-10-01T02:39:07.771Z,3.8
2022-10-01T02:40:08.699Z,3.8
2022-10-01T02:41:08.671Z,3.8
2022-10-01T02:42:09.172Z,3.8
2022-10-01T02:43:08.715Z,3.8
2022-10-01T02:45:08.690Z,3.8
2022-10-01T02:46:08.753Z,3.8
2022-10-01T02:47:08.726Z,3.8
2022-10-01T02:48:09.167Z,3.8
2022-10-01T02:49:08.698Z,3.8
2022-10-01T02:50:08.670Z,3.8
2022-10-01T02:51:09.105Z,3.8
2022-10-01T02:52:09.015Z,3.8
2022-10-01T02:53:09.218Z,3.7
2022-10-01T02:54:09.172Z,3.7
2022-10-01T02:55:09.110Z,3.7
2022-10-01T02:56:08.914Z,3.7
2022-10-01T02:57:08.671Z,3.7
2022-10-01T02:59:07.754Z,3.7
2022-10-01T03:00:08.673Z,3.7
2022-10-01T03:02:09.459Z,3.6
2022-10-01T03:03:08.684Z,3.6
2022-10-01T03:04:09.239Z,3.7
2022-10-01T03:05:08.695Z,3.6
2022-10-01T03:06:08.683Z,3.7
2022-10-01T03:07:07.753Z,3.6
2022-10-01T03:08:09.400Z,3.6
2022-10-01T03:09:08.673Z,3.7
2022-10-01T03:10:08.683Z,3.7
2022-10-01T03:12:08.937Z,3.6
2022-10-01T03:14:08.692Z,3.6
2022-10-01T03:15:08.679Z,3.7
2022-10-01T03:16:08.751Z,3.7
2022-10-01T03:17:08.694Z,3.6
2022-10-01T03:18:09.247Z,3.6
2022-10-01T03:19:09.312Z,3.6
2022-10-01T03:20:08.671Z,3.6
2022-10-01T03:21:08.699Z,3.6
2022-10-01T03:22:08.689Z,3.6
2022-10-01T03:24:08.677Z,3.6
2022-10-01T03:25:08.679Z,3.6
2022-10-01T03:26:09.222Z,3.6
2022-10-01T03:27:09.395Z,3.5
2022-10-01T03:28:09.217Z,3.5
2022-10-01T03:29:09.674Z,3.5
2022-10-01T03:30:08.691Z,3.5
2022-10-01T03:31:08.802Z,3.5
2022-10-01T03:32:09.156Z,3.5
2022-10-01T03:33:08.736Z,3.5
2022-10-01T03:35:07.767Z,3.5
2022-10-01T03:37:07.746Z,3.5
2022-10-01T03:38:09.482Z,3.5
2022-10-01T03:39:08.818Z,3.5
2022-10-01T03:40:08.701Z,3.5
2022-10-01T03:41:08.710Z,3.5
2022-10-01T03:42:09.273Z,3.5
2022-10-01T03:43:08.689Z,3.5
2022-10-01T03:44:08.695Z,3.5
2022-10-01T03:45:08.683Z,3.5
2022-10-01T03:47:08.681Z,3.4
2022-10-01T03:48:08.672Z,3.5
2022-10-01T03:49:08.762Z,3.4
2022-10-01T03:50:08.920Z,3.4
2022-10-01T03:51:09.219Z,3.4
2022-10-01T03:52:08.681Z,3.4
2022-10-01T03:53:08.784Z,3.4
2022-10-01T03:54:08.687Z,3.4
2022-10-01T03:55:09.372Z,3.4
2022-10-01T03:56:08.690Z,3.4
2022-10-01T03:57:08.681Z,3.4
2022-10-01T03:58:08.679Z,3.4
2022-10-01T03:59:08.837Z,3.4
2022-10-01T04:00:08.683Z,3.4
2022-10-01T04:01:08.671Z,3.4
2022-10-01T04:02:08.840Z,3.4
2022-10-01T04:03:08.756Z,3.3
2022-10-01T04:04:08.715Z,3.3
2022-10-01T04:05:08.686Z,3.3
2022-10-01T04:06:08.918Z,3.3
2022-10-01T04:07:08.179Z,3.3
2022-10-01T04:08:08.525Z,3.3
2022-10-01T04:09:09.428Z,3.3
2022-10-01T04:10:08.681Z,3.3
2022-10-01T04:12:08.692Z,3.3
2022-10-01T04:13:08.682Z,3.3
2022-10-01T04:14:08.704Z,3.3
2022-10-01T04:15:08.688Z,3.3
2022-10-01T04:16:08.740Z,3.2
2022-10-01T04:17:08.675Z,3.2
2022-10-01T04:18:08.890Z,3.3
2022-10-01T04:19:07.770Z,3.2
2022-10-01T04:20:08.696Z,3.3
2022-10-01T04:21:08.758Z,3.3
2022-10-01T04:22:08.699Z,3.2
2022-10-01T04:23:09.574Z,3.2
2022-10-01T04:24:09.107Z,3.2
2022-10-01T04:25:08.687Z,3.2
2022-10-01T04:26:08.697Z,3.2
2022-10-01T04:27:08.680Z,3.2
2022-10-01T04:28:08.736Z,3.2
2022-10-01T04:29:09.127Z,3.2
2022-10-01T04:30:07.800Z,3.2
2022-10-01T04:31:09.572Z,3.2
2022-10-01T04:32:09.246Z,3.2
2022-10-01T04:33:08.693Z,3.2
2022-10-01T04:34:08.689Z,3.2
2022-10-01T04:35:08.764Z,3.2
2022-10-01T04:36:09.423Z,3.2
2022-10-01T04:37:08.449Z,3.2
2022-10-01T04:38:09.059Z,3.2
2022-10-01T04:39:08.982Z,3.2
2022-10-01T04:41:08.675Z,3.1
2022-10-01T04:42:08.698Z,3.2
2022-10-01T04:43:09.210Z,3.1
2022-10-01T04:44:08.688Z,3.2
2022-10-01T04:45:08.687Z,3.2
2022-10-01T04:46:08.703Z,3.2
2022-10-01T04:47:08.784Z,3.2
2022-10-01T04:48:08.682Z,3.2
2022-10-01T04:49:08.691Z,3.2
2022-10-01T04:50:09.419Z,3.2
2022-10-01T04:51:07.763Z,3.2
2022-10-01T04:53:08.838Z,3.2
2022-10-01T04:54:08.690Z,3.2
2022-10-01T04:55:08.679Z,3.2
2022-10-01T04:56:08.691Z,3.2
2022-10-01T04:57:08.695Z,3.2
2022-10-01T04:58:09.086Z,3.2
2022-10-01T04:59:08.689Z,3.2
2022-10-01T05:00:08.957Z,3.1
2022-10-01T05:01:09.466Z,3.1
2022-10-01T05:02:09.635Z,3.2
2022-10-01T05:03:07.762Z,3.2
2022-10-01T05:05:08.674Z,3.2
2022-10-01T05:06:08.964Z,3.2
2022-10-01T05:07:08.224Z,3.1
2022-10-01T05:08:08.706Z,3.2
2022-10-01T05:09:08.995Z,3.2
2022-10-01T05:10:08.695Z,3.1
2022-10-01T05:11:08.704Z,3.2
2022-10-01T05:12:08.693Z,3.1
2022-10-01T05:13:07.822Z,3.2
2022-10-01T05:14:08.733Z,3.2
2022-10-01T05:15:08.704Z,3.2
2022-10-01T05:16:08.827Z,3.2
2022-10-01T05:17:08.688Z,3.2
2022-10-01T05:18:08.853Z,3.2
2022-10-01T05:19:08.694Z,3.1
2022-10-01T05:20:09.007Z,3.1
2022-10-01T05:21:08.783Z,3.1
2022-10-01T05:22:08.691Z,3.1
2022-10-01T05:23:09.573Z,3.1
2022-10-01T05:24:07.771Z,3.1
2022-10-01T05:26:08.690Z,3.1
2022-10-01T05:27:08.702Z,3.2
2022-10-01T05:28:07.833Z,3.2
2022-10-01T05:29:09.486Z,3.2
2022-10-01T05:30:08.677Z,3.2
2022-10-01T05:31:09.480Z,3.2
2022-10-01T05:32:08.705Z,3.2
2022-10-01T05:33:08.714Z,3.2
2022-10-01T05:34:09.114Z,3.2
2022-10-01T05:37:07.907Z,3.2
2022-10-01T05:38:09.231Z,3.2
2022-10-01T05:39:08.923Z,3.2
2022-10-01T05:40:08.686Z,3.2
2022-10-01T05:41:08.681Z,3.2
2022-10-01T05:42:08.694Z,3.2
2022-10-01T05:43:09.475Z,3.2
2022-10-01T05:44:09.240Z,3.2
2022-10-01T05:45:08.692Z,3.2
2022-10-01T05:47:08.693Z,3.2
2022-10-01T05:48:08.880Z,3.2
2022-10-01T05:49:08.689Z,3.2
2022-10-01T05:50:08.723Z,3.2
2022-10-01T05:51:09.059Z,3.2
2022-10-01T05:52:09.200Z,3.2
2022-10-01T05:53:09.242Z,3.2
2022-10-01T05:54:09.141Z,3.2
2022-10-01T05:55:08.699Z,3.2
2022-10-01T05:56:09.310Z,3.2
2022-10-01T05:57:07.771Z,3.2
2022-10-01T05:59:07.787Z,3.2
2022-10-01T06:00:08.691Z,3.3
2022-10-01T06:01:08.713Z,3.3
2022-10-01T06:02:08.935Z,3.3
2022-10-01T06:03:08.901Z,3.3
2022-10-01T06:04:08.874Z,3.3
2022-10-01T06:05:08.697Z,3.3
2022-10-01T06:06:09.505Z,3.3
2022-10-01T06:07:07.766Z,3.3
2022-10-01T06:08:08.704Z,3.3
2022-10-01T06:10:07.825Z,3.3
2022-10-01T06:11:07.758Z,3.3
2022-10-01T06:12:09.374Z,3.3
2022-10-01T06:13:08.727Z,3.3
2022-10-01T06:14:08.693Z,3.2
2022-10-01T06:15:08.687Z,3.3
2022-10-01T06:16:08.769Z,3.3
2022-10-01T06:17:09.627Z,3.3
2022-10-01T06:18:08.697Z,3.4
2022-10-01T06:19:08.949Z,3.3
2022-10-01T06:20:09.081Z,3.3
2022-10-01T06:22:07.766Z,3.3
2022-10-01T06:23:09.029Z,3.4
2022-10-01T06:24:08.696Z,3.3
2022-10-01T06:25:09.525Z,3.3
2022-10-01T06:26:08.695Z,3.3
2022-10-01T06:27:09.393Z,3.3
2022-10-01T06:28:08.789Z,3.3
2022-10-01T06:29:09.487Z,3.4
2022-10-01T06:30:08.690Z,3.4
2022-10-01T06:31:08.683Z,3.4
2022-10-01T06:32:09.222Z,3.4
2022-10-01T06:33:07.769Z,3.4
2022-10-01T06:34:08.694Z,3.3
2022-10-01T06:35:08.979Z,3.3
2022-10-01T06:36:08.704Z,3.3
2022-10-01T06:37:08.084Z,3.3
2022-10-01T06:38:09.624Z,3.3
2022-10-01T06:39:09.128Z,3.3
2022-10-01T06:40:08.894Z,3.3
2022-10-01T06:41:08.687Z,3.3
2022-10-01T06:42:08.691Z,3.4
2022-10-01T06:44:08.772Z,3.3
2022-10-01T06:45:09.178Z,3.3
2022-10-01T06:46:08.811Z,3.3
2022-10-01T06:47:08.693Z,3.3
2022-10-01T06:48:09.595Z,3.3
2022-10-01T06:49:08.692Z,3.3
2022-10-01T06:50:08.793Z,3.3
2022-10-01T06:51:09.234Z,3.3
2022-10-01T06:52:09.336Z,3.3
2022-10-01T06:53:09.082Z,3.3
2022-10-01T06:54:09.079Z,3.3
2022-10-01T06:55:11.140Z,3.3
2022-10-01T06:56:08.760Z,3.3
2022-10-01T06:57:08.686Z,3.3
2022-10-01T06:58:08.697Z,3.3
2022-10-01T06:59:08.693Z,3.3
2022-10-01T07:00:08.701Z,3.3
2022-10-01T07:01:08.833Z,3.3
2022-10-01T07:02:09.445Z,3.3
2022-10-01T07:03:08.706Z,3.3
2022-10-01T07:04:07.779Z,3.3
2022-10-01T07:07:07.826Z,3.3
2022-10-01T07:08:09.432Z,3.3
2022-10-01T07:09:08.749Z,3.3
2022-10-01T07:10:08.696Z,3.4
2022-10-01T07:11:08.688Z,3.4
2022-10-01T07:12:08.706Z,3.4
2022-10-01T07:13:08.921Z,3.4
2022-10-01T07:14:08.705Z,3.4
2022-10-01T07:15:08.712Z,3.3
2022-10-01T07:16:08.715Z,3.3
2022-10-01T07:17:09.292Z,3.3
2022-10-01T07:18:08.693Z,3.3
2022-10-01T07:19:08.690Z,3.3
2022-10-01T07:20:09.281Z,3.3
2022-10-01T07:21:09.474Z,3.4
2022-10-01T07:22:09.075Z,3.3
2022-10-01T07:23:08.704Z,3.3
2022-10-01T07:24:08.696Z,3.4
2022-10-01T07:25:09.600Z,3.3
2022-10-01T07:26:09.195Z,3.3
2022-10-01T07:27:08.731Z,3.4
2022-10-01T07:28:08.749Z,3.4
2022-10-01T07:29:08.693Z,3.4
2022-10-01T07:30:08.704Z,3.3
2022-10-01T07:31:08.796Z,3.3
2022-10-01T07:32:08.784Z,3.3
2022-10-01T07:33:08.687Z,3.3
2022-10-01T07:34:09.224Z,3.3
2022-10-01T07:35:08.694Z,3.3
2022-10-01T07:36:08.951Z,3.3
2022-10-01T07:37:07.793Z,3.3
2022-10-01T07:39:08.819Z,3.3
2022-10-01T07:40:08.699Z,3.3
2022-10-01T07:41:08.829Z,3.3
2022-10-01T07:42:08.720Z,3.3
2022-10-01T07:43:08.700Z,3.3
2022-10-01T07:44:08.701Z,3.3
2022-10-01T07:45:08.716Z,3.3
2022-10-01T07:46:09.335Z,3.3
2022-10-01T07:47:08.844Z,3.3
2022-10-01T07:48:08.699Z,3.3
2022-10-01T07:49:08.692Z,3.3
2022-10-01T07:50:09.468Z,3.3
2022-10-01T07:51:08.767Z,3.3
2022-10-01T07:52:13.146Z,3.3
2022-10-01T07:53:09.485Z,3.3
2022-10-01T07:54:08.720Z,3.3
2022-10-01T07:55:08.702Z,3.3
2022-10-01T07:56:08.696Z,3.4
2022-10-01T07:57:09.157Z,3.3
2022-10-01T07:58:07.791Z,3.3
2022-10-01T07:59:07.778Z,3.3
2022-10-01T08:00:07.793Z,3.3
2022-10-01T08:01:09.098Z,3.3
2022-10-01T08:02:09.164Z,3.4
2022-10-01T08:03:09.168Z,3.4
2022-10-01T08:04:08.720Z,3.3
2022-10-01T08:05:08.799Z,3.3
2022-10-01T08:06:09.421Z,3.4
2022-10-01T08:07:08.510Z,3.4
2022-10-01T08:08:09.273Z,3.3
2022-10-01T08:09:08.710Z,3.4
2022-10-01T08:11:07.785Z,3.3
2022-10-01T08:12:08.704Z,3.3
2022-10-01T08:13:08.967Z,3.3
2022-10-01T08:14:08.717Z,3.4
2022-10-01T08:15:09.602Z,3.4
2022-10-01T08:16:09.451Z,3.4
2022-10-01T08:17:09.186Z,3.3
2022-10-01T08:18:08.695Z,3.4
2022-10-01T08:19:08.901Z,3.3
2022-10-01T08:20:08.707Z,3.3
2022-10-01T08:21:08.716Z,3.4
2022-10-01T08:22:09.024Z,3.4
2022-10-01T08:23:08.709Z,3.5
2022-10-01T08:24:08.701Z,3.5
2022-10-01T08:25:08.788Z,3.4
2022-10-01T08:26:08.703Z,3.5
2022-10-01T08:27:08.716Z,3.5
2022-10-01T08:28:08.772Z,3.5
2022-10-01T08:29:10.051Z,3.5
2022-10-01T08:30:08.711Z,3.5
2022-10-01T08:31:08.898Z,3.6
2022-10-01T08:34:08.706Z,3.7
2022-10-01T08:35:08.697Z,3.6
2022-10-01T08:36:08.701Z,3.7
2022-10-01T08:37:07.790Z,3.7
2022-10-01T08:38:08.723Z,3.7
2022-10-01T08:39:08.719Z,3.8
2022-10-01T08:40:08.717Z,3.8
2022-10-01T08:41:08.703Z,3.8
2022-10-01T08:42:09.532Z,3.8
2022-10-01T08:45:08.728Z,3.7
2022-10-01T08:46:09.644Z,3.7
2022-10-01T08:47:08.723Z,3.8
2022-10-01T08:48:08.715Z,3.8
2022-10-01T08:49:08.716Z,3.8
2022-10-01T08:50:08.706Z,3.8
2022-10-01T08:51:08.709Z,3.7
2022-10-01T08:52:08.711Z,3.8
2022-10-01T08:53:08.711Z,3.8
2022-10-01T08:54:08.716Z,3.8
2022-10-01T08:55:07.791Z,3.9
2022-10-01T08:56:07.786Z,3.9
2022-10-01T08:57:08.722Z,3.9
2022-10-01T08:58:09.365Z,3.9
2022-10-01T08:59:08.946Z,3.8
2022-10-01T09:00:08.738Z,3.9
2022-10-01T09:01:08.769Z,3.8
2022-10-01T09:02:09.444Z,3.9
2022-10-01T09:03:09.330Z,3.9
2022-10-01T09:04:09.246Z,3.9
2022-10-01T09:05:15.435Z,3.9
2022-10-01T09:06:15.283Z,3.9
2022-10-01T09:07:16.038Z,4
2022-10-01T09:08:22.267Z,4
2022-10-01T09:10:09.233Z,4
2022-10-01T09:11:09.592Z,4
2022-10-01T09:12:08.704Z,4
2022-10-01T09:13:08.765Z,4
2022-10-01T09:14:09.393Z,4.1
2022-10-01T09:15:08.713Z,4
2022-10-01T09:16:08.903Z,3.9
2022-10-01T09:17:08.879Z,3.9
2022-10-01T09:18:08.713Z,3.9
2022-10-01T09:19:09.432Z,3.9
2022-10-01T09:21:09.368Z,4
2022-10-01T09:22:08.698Z,4
2022-10-01T09:23:08.867Z,4
2022-10-01T09:24:08.843Z,4
2022-10-01T09:25:09.824Z,4
2022-10-01T09:26:09.086Z,4.1
2022-10-01T09:27:08.871Z,4
2022-10-01T09:28:09.320Z,3.9
2022-10-01T09:29:08.734Z,3.9
2022-10-01T09:30:08.706Z,3.9
2022-10-01T09:31:08.776Z,3.9
2022-10-01T09:32:08.789Z,3.9
2022-10-01T09:33:09.499Z,4
2022-10-01T09:34:08.711Z,4
2022-10-01T09:35:09.495Z,4
2022-10-01T09:36:08.719Z,4
2022-10-01T09:37:07.796Z,4
2022-10-01T09:38:08.833Z,4
2022-10-01T09:39:08.732Z,4
2022-10-01T09:40:08.721Z,4
2022-10-01T09:42:09.249Z,3.9
2022-10-01T09:43:09.480Z,3.9
2022-10-01T09:44:08.718Z,3.9
2022-10-01T09:45:08.705Z,3.8
2022-10-01T09:46:09.409Z,3.9
2022-10-01T09:47:08.714Z,3.9
2022-10-01T09:48:08.715Z,4
2022-10-01T09:49:09.640Z,3.9
2022-10-01T09:50:08.712Z,3.9
2022-10-01T09:51:08.729Z,3.9
2022-10-01T09:53:09.142Z,3.8
2022-10-01T09:54:09.225Z,3.8
2022-10-01T09:55:08.714Z,3.8
2022-10-01T09:56:09.191Z,3.9
2022-10-01T09:57:08.714Z,3.9
2022-10-01T09:58:08.724Z,3.9
2022-10-01T09:59:08.725Z,3.9
2022-10-01T10:00:08.716Z,3.9
2022-10-01T10:01:08.713Z,4
2022-10-01T10:02:09.379Z,4
2022-10-01T10:03:09.590Z,3.9
2022-10-01T10:04:08.791Z,4
2022-10-01T10:05:08.886Z,3.9
2022-10-01T10:06:08.789Z,3.9
2022-10-01T10:07:07.792Z,3.9
2022-10-01T10:08:08.722Z,3.9
2022-10-01T10:09:08.735Z,3.9
2022-10-01T10:10:08.819Z,3.9
2022-10-01T10:11:08.794Z,3.8
2022-10-01T10:12:08.722Z,3.8
2022-10-01T10:14:08.716Z,3.7
2022-10-01T10:15:08.726Z,3.8
2022-10-01T10:16:09.754Z,3.8
2022-10-01T10:17:09.395Z,3.8
2022-10-01T10:18:08.728Z,3.9
2022-10-01T10:19:08.727Z,4
2022-10-01T10:20:08.906Z,4.1
2022-10-01T10:21:09.390Z,4.2
2022-10-01T10:22:08.720Z,4.3
2022-10-01T10:23:09.308Z,4.4
2022-10-01T10:26:07.798Z,4.4
2022-10-01T10:27:09.185Z,4.5
2022-10-01T10:28:08.537Z,4.5
2022-10-01T10:30:09.282Z,4.5
2022-10-01T10:31:08.778Z,4.5
2022-10-01T10:32:09.391Z,4.5
2022-10-01T10:33:09.198Z,4.5
2022-10-01T10:34:08.738Z,4.4
2022-10-01T10:35:07.822Z,4.4
2022-10-01T10:37:08.509Z,4.5
2022-10-01T10:38:08.941Z,4.5
2022-10-01T10:39:09.090Z,4.5
2022-10-01T10:40:08.731Z,4.5
2022-10-01T10:41:08.994Z,4.5
2022-10-01T10:42:09.462Z,4.5
2022-10-01T10:43:08.732Z,4.5
2022-10-01T10:44:08.793Z,4.5
2022-10-01T10:45:08.725Z,4.5
2022-10-01T10:47:08.729Z,4.5
2022-10-01T10:48:08.879Z,4.5
2022-10-01T10:49:08.724Z,4.5
2022-10-01T10:50:09.157Z,4.7
2022-10-01T10:51:08.794Z,4.7
2022-10-01T10:52:08.731Z,4.6
2022-10-01T10:53:09.029Z,4.7
2022-10-01T10:54:09.456Z,4.7
2022-10-01T10:55:08.731Z,4.7
2022-10-01T10:56:08.725Z,4.6
2022-10-01T10:57:09.033Z,4.7
2022-10-01T10:58:08.743Z,4.6
2022-10-01T10:59:08.734Z,4.7
2022-10-01T11:01:09.150Z,4.9
2022-10-01T11:02:08.926Z,4.9
2022-10-01T11:03:08.737Z,5
2022-10-01T11:04:09.354Z,5
2022-10-01T11:05:08.734Z,5
2022-10-01T11:06:08.729Z,5.1
2022-10-01T11:07:07.809Z,4.9
2022-10-01T11:08:08.734Z,4.8
2022-10-01T11:11:08.730Z,4.8
2022-10-01T11:12:08.833Z,5
2022-10-01T11:13:08.864Z,5.1
2022-10-01T11:14:09.396Z,5
2022-10-01T11:15:09.205Z,5.2
2022-10-01T11:16:08.845Z,5.2
2022-10-01T11:17:08.736Z,5.1
2022-10-01T11:18:09.173Z,5.1
2022-10-01T11:19:08.747Z,5
2022-10-01T11:20:09.485Z,5.1
2022-10-01T11:22:08.742Z,5.1
2022-10-01T11:23:09.445Z,5
2022-10-01T11:24:09.086Z,5
2022-10-01T11:25:09.467Z,5
2022-10-01T11:26:09.357Z,4.9
2022-10-01T11:27:09.725Z,4.9
2022-10-01T11:28:08.944Z,4.9
2022-10-01T11:29:08.737Z,4.9
2022-10-01T11:30:08.745Z,4.9
2022-10-01T11:31:09.371Z,4.9
2022-10-01T11:32:07.821Z,4.8
2022-10-01T11:33:08.737Z,4.9
2022-10-01T11:34:09.326Z,4.8
2022-10-01T11:35:08.770Z,4.7
2022-10-01T11:36:09.489Z,4.7
2022-10-01T11:37:08.280Z,4.6
2022-10-01T11:38:08.743Z,4.6
2022-10-01T11:39:09.683Z,4.6
2022-10-01T11:40:08.752Z,4.6
2022-10-01T11:41:09.326Z,4.5
2022-10-01T11:43:07.819Z,4.5
2022-10-01T11:44:07.811Z,4.4
2022-10-01T11:45:07.799Z,4.4
2022-10-01T11:46:08.995Z,4.5
2022-10-01T11:47:09.040Z,4.4
2022-10-01T11:48:08.741Z,4.3
2022-10-01T11:49:08.784Z,4.2
2022-10-01T11:50:09.003Z,4.2
2022-10-01T11:51:09.184Z,4.2
2022-10-01T11:52:08.756Z,4.1
2022-10-01T11:53:08.993Z,4
2022-10-01T11:54:09.658Z,4.1
2022-10-01T11:55:08.736Z,4.1
2022-10-01T11:56:08.878Z,4.1
2022-10-01T11:57:08.731Z,4.1
2022-10-01T11:58:08.733Z,4.2
2022-10-01T11:59:09.001Z,4.2
2022-10-01T12:00:09.390Z,4.2
2022-10-01T12:01:08.732Z,4.1
2022-10-01T12:02:08.818Z,4.1
2022-10-01T12:03:08.890Z,4.1
2022-10-01T12:04:08.741Z,4.1
2022-10-01T12:06:07.825Z,4.3
2022-10-01T12:09:09.507Z,4.3
2022-10-01T12:10:08.748Z,4.3
2022-10-01T12:11:08.734Z,4.2
2022-10-01T12:12:08.775Z,4.2
2022-10-01T12:13:08.739Z,4.1
2022-10-01T12:14:08.742Z,4.4
2022-10-01T12:15:08.749Z,4.6
2022-10-01T12:16:08.856Z,4.5
2022-10-01T12:17:09.330Z,4.4
2022-10-01T12:18:09.475Z,4.3
2022-10-01T12:20:09.371Z,4.2
2022-10-01T12:21:08.753Z,4.2
2022-10-01T12:22:08.762Z,4.2
2022-10-01T12:23:08.745Z,4.1
2022-10-01T12:24:08.961Z,4.2
2022-10-01T12:25:08.736Z,4.2
2022-10-01T12:26:08.785Z,4.2
2022-10-01T12:27:08.740Z,4.2
2022-10-01T12:28:08.837Z,4.2
2022-10-01T12:29:08.534Z,4.3
2022-10-01T12:30:08.844Z,4.3
2022-10-01T12:31:08.785Z,4.4
2022-10-01T12:32:09.714Z,4.4
2022-10-01T12:33:08.800Z,4.4
2022-10-01T12:34:09.386Z,4.4
2022-10-01T12:35:09.323Z,4.4
2022-10-01T12:37:08.690Z,4.2
2022-10-01T12:38:08.744Z,4.4
2022-10-01T12:39:08.757Z,4.3
2022-10-01T12:41:08.737Z,4.2
2022-10-01T12:42:09.155Z,4.2
2022-10-01T12:43:08.740Z,4.2
2022-10-01T12:44:09.580Z,4.1
2022-10-01T12:45:08.821Z,4.1
2022-10-01T12:46:08.809Z,4
2022-10-01T12:47:09.440Z,4
2022-10-01T12:48:08.733Z,3.9
2022-10-01T12:49:08.787Z,3.8
2022-10-01T12:50:08.777Z,3.7
2022-10-01T12:51:07.835Z,3.7
2022-10-01T12:52:08.738Z,3.7
2022-10-01T12:53:08.811Z,3.7
2022-10-01T12:54:13.253Z,3.7
2022-10-01T12:55:08.985Z,3.8
2022-10-01T12:56:08.749Z,3.7
2022-10-01T12:57:08.750Z,3.6
2022-10-01T12:58:07.824Z,3.6
2022-10-01T12:59:09.458Z,3.6
2022-10-01T13:00:08.847Z,3.6
2022-10-01T13:02:08.879Z,3.6
2022-10-01T13:03:08.736Z,3.6
2022-10-01T13:04:08.782Z,3.6
2022-10-01T13:05:09.119Z,3.6
2022-10-01T13:06:08.755Z,3.8
2022-10-01T13:07:08.282Z,3.9
2022-10-01T13:08:09.144Z,4
2022-10-01T13:09:09.326Z,4
2022-10-01T13:10:08.751Z,4.1
2022-10-01T13:11:08.742Z,4.1
2022-10-01T13:13:09.227Z,4.3
2022-10-01T13:14:08.817Z,4.2
2022-10-01T13:15:08.750Z,4.3
2022-10-01T13:16:08.839Z,4.3
2022-10-01T13:17:08.753Z,4.3
2022-10-01T13:18:08.900Z,4.3
2022-10-01T13:19:09.037Z,4.4
2022-10-01T13:20:09.317Z,4.4
2022-10-01T13:21:08.969Z,4.3
2022-10-01T13:22:08.755Z,4.3
2022-10-01T13:23:08.757Z,4.4
2022-10-01T13:24:07.845Z,4.5
2022-10-01T13:26:08.749Z,4.4
2022-10-01T13:27:08.751Z,4.4
2022-10-01T13:28:09.510Z,4.4
2022-10-01T13:29:08.758Z,4.4
2022-10-01T13:30:08.741Z,4.5
2022-10-01T13:31:09.669Z,4.6
2022-10-01T13:32:08.983Z,4.6
2022-10-01T13:33:09.364Z,4.6
2022-10-01T13:34:08.743Z,4.6
2022-10-01T13:35:08.763Z,4.6
2022-10-01T13:36:08.735Z,4.6
2022-10-01T13:37:07.828Z,4.5
2022-10-01T13:38:08.957Z,4.4
2022-10-01T13:39:09.652Z,4.4
2022-10-01T13:40:08.764Z,4.4
2022-10-01T13:41:08.798Z,4.5
2022-10-01T13:42:09.145Z,4.4
2022-10-01T13:43:09.450Z,4.4
2022-10-01T13:44:07.820Z,4.4
2022-10-01T13:45:07.837Z,4.3
2022-10-01T13:46:08.916Z,4.3
2022-10-01T13:47:08.756Z,4.2
2022-10-01T13:49:09.026Z,4.2
2022-10-01T13:50:08.756Z,4.2
2022-10-01T13:51:08.754Z,4.3
2022-10-01T13:52:09.728Z,4.2
2022-10-01T13:53:08.768Z,4.3
2022-10-01T13:54:08.894Z,4.3
2022-10-01T13:55:08.753Z,4.3
2022-10-01T13:57:09.221Z,4.4
2022-10-01T13:58:08.755Z,4.5
2022-10-01T13:59:09.120Z,4.4
2022-10-01T14:00:09.367Z,4.3
2022-10-01T14:01:13.891Z,4.4
2022-10-01T14:02:08.983Z,4.5
2022-10-01T14:03:08.804Z,4.5
2022-10-01T14:04:08.746Z,4.6
2022-10-01T14:05:08.839Z,4.6
2022-10-01T14:06:07.840Z,4.5
2022-10-01T14:07:14.411Z,4.5
2022-10-01T14:08:16.091Z,4.6
2022-10-01T14:09:15.333Z,4.6
2022-10-01T14:10:08.776Z,4.8
2022-10-01T14:11:09.147Z,4.9
2022-10-01T14:12:08.767Z,4.9
2022-10-01T14:13:09.123Z,4.9
2022-10-01T14:14:08.873Z,4.9
2022-10-01T14:16:08.835Z,4.9
2022-10-01T14:17:08.770Z,5
2022-10-01T14:18:09.424Z,5
2022-10-01T14:19:08.761Z,5
2022-10-01T14:22:09.363Z,5
2022-10-01T14:23:08.760Z,5
2022-10-01T14:24:08.837Z,5.1
2022-10-01T14:25:08.755Z,5.2
2022-10-01T14:26:08.766Z,5.2
2022-10-01T14:27:09.053Z,5.1
2022-10-01T14:28:08.790Z,5
2022-10-01T14:30:09.234Z,5.1
2022-10-01T14:31:08.851Z,5.1
2022-10-01T14:34:09.458Z,5.2
2022-10-01T14:35:08.919Z,5.1
2022-10-01T14:36:09.314Z,5.1
2022-10-01T14:38:08.822Z,5.1
2022-10-01T14:40:09.269Z,5
2022-10-01T14:41:08.817Z,4.9
2022-10-01T14:42:16.544Z,5.1
2022-10-01T14:44:08.763Z,5.1
2022-10-01T14:45:08.763Z,5.1
2022-10-01T14:46:09.731Z,5.2
2022-10-01T14:47:08.764Z,5.2
2022-10-01T14:48:08.775Z,5.2
2022-10-01T14:49:08.757Z,5.1
2022-10-01T14:50:08.940Z,5.1
2022-10-01T14:51:08.925Z,5.1
2022-10-01T14:52:08.984Z,5.1
2022-10-01T14:53:08.858Z,5
2022-10-01T14:55:08.775Z,5.1
2022-10-01T14:56:08.822Z,5.1
2022-10-01T14:57:09.133Z,5.1
2022-10-01T14:58:08.769Z,5.2
2022-10-01T14:59:11.874Z,5.2
2022-10-01T15:00:08.785Z,5.1